Time;durP1;ratioP1;P1;durP2;ratioP2;P2;SDS_P1;SDS_P2;PMS_P1;PMS_P2;Temp;Humidity;BMP_temperature;BMP_pressure;BME280_temperature;BME280_humidity;BME280_pressure;Samples;Min_cycle;Max_cycle;Signal;HPM_P1;HPM_P2
2021/04/16 00:01:44;;;;;;;6.20;5.60;;;;;;;;;;5073413;28;20431;-54
2021/04/16 00:04:10;;;;;;;6.13;5.53;;;;;;;;;;5073452;28;20437;-54
2021/04/16 00:06:36;;;;;;;6.17;5.63;;;;;;;;;;5073062;28;20479;-55
2021/04/16 00:09:03;;;;;;;7.47;5.37;;;;;;;;;;5073303;28;20431;-56
2021/04/16 00:11:29;;;;;;;7.72;5.50;;;;;;;;;;5073301;28;20402;-55
2021/04/16 00:13:55;;;;;;;5.83;5.30;;;;;;;;;;5073342;28;20201;-55
2021/04/16 00:16:23;;;;;;;5.80;5.30;;;;;;;;;;5073195;28;20893;-55
2021/04/16 00:18:49;;;;;;;15.55;4.82;;;;;;;;;;5073138;28;20420;-55
2021/04/16 00:21:15;;;;;;;5.70;5.10;;;;;;;;;;5073038;28;20190;-55
2021/04/16 00:23:41;;;;;;;6.22;5.63;;;;;;;;;;5073076;28;20175;-56
2021/04/16 00:26:08;;;;;;;5.57;5.07;;;;;;;;;;5072976;28;20252;-54
2021/04/16 00:28:34;;;;;;;6.07;5.47;;;;;;;;;;5073075;28;20178;-55
2021/04/16 00:31:02;;;;;;;6.35;5.15;;;;;;;;;;5073118;28;20171;-55
2021/04/16 00:33:28;;;;;;;8.68;5.90;;;;;;;;;;5072871;28;20235;-55
2021/04/16 00:35:54;;;;;;;7.63;5.63;;;;;;;;;;5071816;28;20166;-55
2021/04/16 00:38:20;;;;;;;5.75;5.22;;;;;;;;;;5072594;28;20212;-55
2021/04/16 00:40:48;;;;;;;7.60;5.55;;;;;;;;;;5072947;28;20156;-54
2021/04/16 00:43:16;;;;;;;7.82;5.80;;;;;;;;;;5072832;28;20436;-56
2021/04/16 00:45:43;;;;;;;6.82;5.22;;;;;;;;;;5072546;28;20167;-55
2021/04/16 00:48:11;;;;;;;8.43;5.82;;;;;;;;;;5072517;28;20170;-55
2021/04/16 00:50:48;;;;;;;6.03;5.43;;;;;;;;;;5072601;28;20185;-55
2021/04/16 00:53:15;;;;;;;6.38;5.78;;;;;;;;;;5072472;28;20200;-55
2021/04/16 00:55:42;;;;;;;7.50;6.32;;;;;;;;;;5072413;28;20155;-54
2021/04/16 00:58:08;;;;;;;7.55;5.45;;;;;;;;;;5072372;28;20539;-55
2021/04/16 01:00:34;;;;;;;8.03;5.97;;;;;;;;;;5072608;28;20245;-54
2021/04/16 01:03:01;;;;;;;6.43;5.82;;;;;;;;;;5071746;28;20467;-54
2021/04/16 01:05:27;;;;;;;8.02;5.63;;;;;;;;;;5053766;28;20175;-56
2021/04/16 01:07:53;;;;;;;6.30;5.70;;;;;;;;;;5072406;28;20170;-55
2021/04/16 01:10:19;;;;;;;8.50;5.90;;;;;;;;;;5072257;28;20429;-55
2021/04/16 01:12:45;;;;;;;9.70;6.15;;;;;;;;;;5072280;28;20182;-56
2021/04/16 01:15:25;;;;;;;6.28;5.68;;;;;;;;;;5071781;28;20528;-55
2021/04/16 01:17:51;;;;;;;6.78;5.40;;;;;;;;;;5072170;28;20703;-55
2021/04/16 01:20:19;;;;;;;7.10;6.40;;;;;;;;;;5072194;28;20264;-55
2021/04/16 01:23:05;;;;;;;6.45;5.30;;;;;;;;;;5072193;28;20166;-55
2021/04/16 01:25:31;;;;;;;6.97;5.75;;;;;;;;;;5030676;28;20210;-55
2021/04/16 01:27:57;;;;;;;5.60;5.10;;;;;;;;;;5072125;28;20229;-56
2021/04/16 01:30:26;;;;;;;6.13;5.20;;;;;;;;;;5071653;28;20730;-55
2021/04/16 01:32:52;;;;;;;5.97;5.40;;;;;;;;;;5071885;28;20436;-56
2021/04/16 01:35:20;;;;;;;6.00;5.40;;;;;;;;;;5071646;28;20162;-55
2021/04/16 01:37:46;;;;;;;7.50;5.60;;;;;;;;;;5071990;28;20203;-55
2021/04/16 01:40:13;;;;;;;7.70;6.35;;;;;;;;;;5053892;28;20190;-55
2021/04/16 01:42:40;;;;;;;5.93;5.40;;;;;;;;;;5072012;28;20267;-55
2021/04/16 01:45:16;;;;;;;10.38;6.93;;;;;;;;;;5071773;28;20177;-56
2021/04/16 01:47:42;;;;;;;8.57;7.40;;;;;;;;;;5071877;28;20230;-55
2021/04/16 01:50:08;;;;;;;9.48;7.05;;;;;;;;;;5071602;28;20177;-54
2021/04/16 01:52:34;;;;;;;7.63;6.82;;;;;;;;;;5071686;28;20191;-56
2021/04/16 01:55:02;;;;;;;8.85;7.03;;;;;;;;;;5071414;28;20562;-56
2021/04/16 01:57:33;;;;;;;7.78;6.93;;;;;;;;;;5071411;28;20165;-55
2021/04/16 01:59:59;;;;;;;7.57;6.75;;;;;;;;;;5071195;28;20195;-56
2021/04/16 02:02:32;;;;;;;7.85;7.00;;;;;;;;;;5071251;28;20171;-56
2021/04/16 02:04:58;;;;;;;10.77;7.82;;;;;;;;;;5071127;28;20168;-54
2021/04/16 02:07:26;;;;;;;8.70;7.30;;;;;;;;;;5071028;28;20179;-55
2021/04/16 02:09:52;;;;;;;8.02;6.78;;;;;;;;;;5071006;28;20205;-54
2021/04/16 02:12:20;;;;;;;10.65;7.65;;;;;;;;;;5070905;28;20645;-55
2021/04/16 02:14:47;;;;;;;7.50;6.80;;;;;;;;;;5071082;28;20243;-55
2021/04/16 02:17:16;;;;;;;7.80;7.00;;;;;;;;;;5070679;28;20246;-56
2021/04/16 02:19:43;;;;;;;6.75;5.85;;;;;;;;;;5070973;28;20670;-55
2021/04/16 02:22:11;;;;;;;8.27;6.38;;;;;;;;;;5070924;28;20205;-55
2021/04/16 02:24:37;;;;;;;7.07;6.25;;;;;;;;;;5070905;28;20534;-55
2021/04/16 02:27:03;;;;;;;6.67;5.90;;;;;;;;;;5070442;28;20177;-55
2021/04/16 02:29:29;;;;;;;7.65;6.15;;;;;;;;;;5070797;28;20480;-56
2021/04/16 02:31:55;;;;;;;6.63;5.53;;;;;;;;;;5071024;28;20181;-55
2021/04/16 02:34:23;;;;;;;7.23;6.20;;;;;;;;;;5070730;28;20460;-55
2021/04/16 02:36:50;;;;;;;8.98;7.53;;;;;;;;;;5070390;28;20452;-56
2021/04/16 02:39:16;;;;;;;8.60;7.20;;;;;;;;;;5052668;28;20225;-55
2021/04/16 02:41:42;;;;;;;11.73;6.90;;;;;;;;;;5070800;28;20662;-55
2021/04/16 02:44:11;;;;;;;7.20;6.50;;;;;;;;;;5070551;28;20196;-55
2021/04/16 02:46:38;;;;;;;9.65;6.68;;;;;;;;;;5070426;28;20424;-55
2021/04/16 02:49:05;;;;;;;8.77;7.57;;;;;;;;;;5070505;28;20265;-55
2021/04/16 02:51:31;;;;;;;8.85;7.03;;;;;;;;;;5070525;28;20177;-55
2021/04/16 02:53:57;;;;;;;7.57;6.78;;;;;;;;;;5070436;28;20200;-55
2021/04/16 02:56:23;;;;;;;9.40;7.13;;;;;;;;;;5070358;28;20163;-55
2021/04/16 02:58:50;;;;;;;8.38;7.00;;;;;;;;;;5069688;28;20432;-56
2021/04/16 03:01:16;;;;;;;8.40;7.18;;;;;;;;;;5070677;28;20665;-56
2021/04/16 03:03:42;;;;;;;8.77;6.93;;;;;;;;;;5070426;28;20173;-55
2021/04/16 03:06:08;;;;;;;9.03;6.87;;;;;;;;;;5070181;28;20854;-56
2021/04/16 03:08:36;;;;;;;9.27;6.63;;;;;;;;;;5070314;28;20801;-55
2021/04/16 03:11:05;;;;;;;7.40;6.43;;;;;;;;;;5070503;28;20179;-55
2021/04/16 03:13:31;;;;;;;7.97;6.80;;;;;;;;;;5070220;28;20194;-55
2021/04/16 03:15:57;;;;;;;8.80;6.83;;;;;;;;;;5070234;28;20733;-55
2021/04/16 03:18:23;;;;;;;9.40;7.68;;;;;;;;;;5070144;28;20434;-55
2021/04/16 03:20:50;;;;;;;10.67;7.40;;;;;;;;;;5070288;28;20199;-55
2021/04/16 03:23:16;;;;;;;9.80;6.63;;;;;;;;;;5070365;28;20404;-56
2021/04/16 03:25:42;;;;;;;9.20;6.53;;;;;;;;;;5069985;28;20174;-55
2021/04/16 03:28:08;;;;;;;9.23;6.73;;;;;;;;;;5070223;28;20775;-55
2021/04/16 03:30:34;;;;;;;12.70;6.50;;;;;;;;;;5070224;28;20819;-54
2021/04/16 03:33:00;;;;;;;9.85;6.30;;;;;;;;;;5070186;28;20496;-55
2021/04/16 03:35:27;;;;;;;9.73;7.10;;;;;;;;;;5069850;28;20175;-55
2021/04/16 03:37:53;;;;;;;8.20;6.18;;;;;;;;;;5070187;28;20405;-56
2021/04/16 03:40:21;;;;;;;7.05;5.70;;;;;;;;;;5069991;28;20194;-54
2021/04/16 03:42:47;;;;;;;5.95;5.45;;;;;;;;;;5070517;28;20197;-55
2021/04/16 03:45:14;;;;;;;8.23;6.60;;;;;;;;;;5069849;28;20195;-56
2021/04/16 03:47:41;;;;;;;8.18;6.20;;;;;;;;;;5070262;28;20472;-55
2021/04/16 03:50:07;;;;;;;8.07;6.18;;;;;;;;;;5069962;28;20191;-56
2021/04/16 03:52:34;;;;;;;9.20;6.70;;;;;;;;;;5070069;28;20415;-55
2021/04/16 03:54:59;;;;;;;10.18;6.28;;;;;;;;;;5069814;28;20208;-55
2021/04/16 03:57:25;;;;;;;8.17;6.27;;;;;;;;;;5070033;28;20172;-55
2021/04/16 03:59:54;;;;;;;10.60;6.67;;;;;;;;;;5069965;28;20444;-56
2021/04/16 04:02:20;;;;;;;9.40;6.90;;;;;;;;;;5069743;28;20416;-55
2021/04/16 04:04:46;;;;;;;7.65;5.68;;;;;;;;;;5070212;28;20179;-55
2021/04/16 04:07:12;;;;;;;7.90;6.45;;;;;;;;;;5069575;28;20181;-55
2021/04/16 04:09:38;;;;;;;8.63;7.77;;;;;;;;;;5069873;28;20548;-55
2021/04/16 04:12:05;;;;;;;7.97;6.33;;;;;;;;;;5071800;28;20412;-54
2021/04/16 04:14:31;;;;;;;7.95;6.65;;;;;;;;;;5073355;28;20489;-54
2021/04/16 04:16:58;;;;;;;14.33;7.77;;;;;;;;;;5072880;28;20210;-54
2021/04/16 04:19:25;;;;;;;11.48;7.40;;;;;;;;;;5073257;28;20430;-55
2021/04/16 04:21:51;;;;;;;7.75;6.47;;;;;;;;;;5072965;28;20180;-54
2021/04/16 04:24:17;;;;;;;10.05;6.63;;;;;;;;;;5073277;28;20168;-55
2021/04/16 04:26:44;;;;;;;8.43;7.32;;;;;;;;;;5072770;28;20162;-54
2021/04/16 04:29:12;;;;;;;9.05;6.80;;;;;;;;;;5073040;28;20186;-55
2021/04/16 04:31:46;;;;;;;12.60;7.57;;;;;;;;;;5072850;28;20246;-54
2021/04/16 04:34:13;;;;;;;9.88;8.15;;;;;;;;;;5073217;28;20208;-54
2021/04/16 04:36:39;;;;;;;13.85;7.95;;;;;;;;;;5072636;28;20173;-55
2021/04/16 04:39:05;;;;;;;11.83;8.07;;;;;;;;;;5072783;28;20182;-55
2021/04/16 04:41:31;;;;;;;12.43;8.25;;;;;;;;;;5072734;28;20397;-56
2021/04/16 04:43:57;;;;;;;10.30;7.97;;;;;;;;;;5072647;28;20635;-55
2021/04/16 04:46:23;;;;;;;10.20;8.40;;;;;;;;;;5072531;28;20411;-55
2021/04/16 04:48:49;;;;;;;11.77;8.83;;;;;;;;;;5073032;28;20429;-55
2021/04/16 04:51:15;;;;;;;10.87;8.67;;;;;;;;;;5072730;28;20401;-56
2021/04/16 04:53:41;;;;;;;12.60;7.70;;;;;;;;;;5072475;28;20543;-54
2021/04/16 04:56:07;;;;;;;11.33;8.13;;;;;;;;;;5072349;28;20397;-55
2021/04/16 04:58:33;;;;;;;14.05;7.90;;;;;;;;;;5072194;28;20540;-55
2021/04/16 05:00:59;;;;;;;16.47;8.17;;;;;;;;;;5072539;28;20263;-55
2021/04/16 05:03:24;;;;;;;9.10;7.70;;;;;;;;;;5072375;28;20401;-56
2021/04/16 05:05:50;;;;;;;9.07;7.83;;;;;;;;;;5072258;28;20401;-55
2021/04/16 05:08:16;;;;;;;9.90;8.33;;;;;;;;;;5072303;28;20401;-56
2021/04/16 05:10:42;;;;;;;13.10;8.30;;;;;;;;;;5072387;28;20460;-55
2021/04/16 05:13:08;;;;;;;8.13;7.33;;;;;;;;;;5072018;28;20473;-55
2021/04/16 05:15:34;;;;;;;8.33;7.17;;;;;;;;;;5072504;28;20400;-55
2021/04/16 05:18:00;;;;;;;9.90;7.63;;;;;;;;;;5072509;28;20402;-54
2021/04/16 05:20:26;;;;;;;11.60;8.20;;;;;;;;;;5072785;28;20454;-53
2021/04/16 05:22:52;;;;;;;12.38;8.15;;;;;;;;;;5072048;28;20485;-52
2021/04/16 05:25:18;;;;;;;9.63;7.53;;;;;;;;;;5071885;28;20739;-55
2021/04/16 05:27:44;;;;;;;13.53;8.53;;;;;;;;;;5072571;28;20459;-54
2021/04/16 05:30:10;;;;;;;9.57;7.63;;;;;;;;;;5071902;28;20421;-54
2021/04/16 05:32:37;;;;;;;11.25;7.57;;;;;;;;;;5071180;28;20402;-55
2021/04/16 05:35:03;;;;;;;12.43;7.65;;;;;;;;;;5071076;28;20569;-52
2021/04/16 05:37:29;;;;;;;13.80;9.00;;;;;;;;;;5071433;28;20168;-52
2021/04/16 05:39:55;;;;;;;17.63;8.53;;;;;;;;;;5071124;28;20624;-52
2021/04/16 05:42:21;;;;;;;9.53;7.97;;;;;;;;;;5071569;28;20394;-52
2021/04/16 05:44:48;;;;;;;8.15;7.20;;;;;;;;;;5071077;28;20438;-52
2021/04/16 05:47:14;;;;;;;10.43;7.88;;;;;;;;;;5070913;28;20594;-52
2021/04/16 05:49:40;;;;;;;8.87;7.47;;;;;;;;;;5070749;28;20257;-52
2021/04/16 05:52:06;;;;;;;10.48;8.02;;;;;;;;;;5071416;28;20414;-52
2021/04/16 05:54:32;;;;;;;11.77;7.53;;;;;;;;;;5071382;28;20198;-52
2021/04/16 05:56:58;;;;;;;9.60;7.70;;;;;;;;;;5071081;28;20507;-53
2021/04/16 05:59:24;;;;;;;11.43;8.57;;;;;;;;;;5070331;28;20845;-52
2021/04/16 06:01:49;;;;;;;15.13;8.67;;;;;;;;;;5095673;28;20471;-52
2021/04/16 06:04:18;;;;;;;11.73;8.90;;;;;;;;;;5093523;28;20421;-52
2021/04/16 06:06:44;;;;;;;12.73;7.93;;;;;;;;;;5091231;28;20418;-52
2021/04/16 06:09:10;;;;;;;9.50;7.50;;;;;;;;;;5091317;28;20581;-55
2021/04/16 06:11:36;;;;;;;9.68;7.57;;;;;;;;;;5091294;28;20441;-52
2021/04/16 06:14:02;;;;;;;11.77;8.33;;;;;;;;;;5091036;28;20638;-52
2021/04/16 06:16:28;;;;;;;11.93;9.27;;;;;;;;;;5090845;28;20407;-52
2021/04/16 06:18:54;;;;;;;19.70;9.13;;;;;;;;;;5091174;28;20268;-52
2021/04/16 06:21:20;;;;;;;11.00;9.10;;;;;;;;;;5091714;28;20399;-52
2021/04/16 06:23:46;;;;;;;11.50;8.30;;;;;;;;;;5091052;28;20407;-53
2021/04/16 06:26:12;;;;;;;13.52;9.60;;;;;;;;;;5091222;28;20768;-52
2021/04/16 06:28:38;;;;;;;10.53;8.90;;;;;;;;;;5091438;28;20197;-52
2021/04/16 06:31:04;;;;;;;14.75;9.70;;;;;;;;;;5091377;28;20395;-53
2021/04/16 06:33:31;;;;;;;12.67;8.83;;;;;;;;;;5090469;28;20197;-52
2021/04/16 06:36:03;;;;;;;13.02;8.38;;;;;;;;;;5090779;28;20483;-52
2021/04/16 06:38:30;;;;;;;11.00;8.13;;;;;;;;;;5091010;28;20170;-52
2021/04/16 06:40:57;;;;;;;9.65;7.45;;;;;;;;;;5091042;28;20162;-53
2021/04/16 06:43:24;;;;;;;10.35;8.40;;;;;;;;;;5090911;28;20173;-52
2021/04/16 06:45:53;;;;;;;17.30;9.05;;;;;;;;;;5090754;28;20621;-53
2021/04/16 06:48:19;;;;;;;15.13;8.98;;;;;;;;;;5090699;28;20169;-52
2021/04/16 06:50:46;;;;;;;18.13;9.52;;;;;;;;;;5090931;28;20216;-53
2021/04/16 06:53:16;;;;;;;13.65;8.85;;;;;;;;;;5073840;28;20205;-52
2021/04/16 06:55:48;;;;;;;9.52;7.68;;;;;;;;;;5089965;28;20168;-55
2021/04/16 06:58:17;;;;;;;11.18;8.45;;;;;;;;;;5090563;28;20172;-55
2021/04/16 07:00:48;;;;;;;8.52;7.20;;;;;;;;;;5090454;28;20641;-53
2021/04/16 07:03:19;;;;;;;12.35;8.95;;;;;;;;;;5089981;28;20215;-55
2021/04/16 07:05:51;;;;;;;9.18;7.25;;;;;;;;;;5087543;28;20605;-52
2021/04/16 07:08:37;;;;;;;10.68;8.10;;;;;;;;;;5090656;28;20626;-51
2021/04/16 07:11:19;;;;;;;9.70;7.95;;;;;;;;;;5090562;28;20188;-52
2021/04/16 07:13:45;;;;;;;11.50;7.30;;;;;;;;;;5072592;28;20197;-54
2021/04/16 07:16:11;;;;;;;11.23;7.47;;;;;;;;;;5090268;28;20395;-55
2021/04/16 07:18:39;;;;;;;19.53;8.07;;;;;;;;;;5090551;28;20521;-52
2021/04/16 07:21:07;;;;;;;16.43;8.50;;;;;;;;;;5090403;28;20407;-53
2021/04/16 07:23:35;;;;;;;13.03;8.17;;;;;;;;;;5090615;28;20853;-52
2021/04/16 07:26:01;;;;;;;9.37;6.30;;;;;;;;;;5090104;28;20434;-53
2021/04/16 07:28:42;;;;;;;12.00;7.07;;;;;;;;;;5090655;28;20458;-53
2021/04/16 07:31:27;;;;;;;13.73;7.43;;;;;;;;;;5090287;28;20991;-56
2021/04/16 07:33:53;;;;;;;8.13;6.30;;;;;;;;;;5090495;28;20439;-53
2021/04/16 07:36:25;;;;;;;6.80;5.60;;;;;;;;;;5090131;28;20401;-53
2021/04/16 07:39:04;;;;;;;6.70;5.83;;;;;;;;;;5090240;28;20845;-54
2021/04/16 07:41:33;;;;;;;7.70;5.70;;;;;;;;;;5090632;28;20402;-54
2021/04/16 07:44:00;;;;;;;7.30;5.60;;;;;;;;;;5072356;28;20418;-54
2021/04/16 07:46:26;;;;;;;6.47;5.87;;;;;;;;;;5092806;28;20427;-52
2021/04/16 07:48:53;;;;;;;6.17;4.97;;;;;;;;;;5094081;28;20450;-53
2021/04/16 07:51:29;;;;;;;9.70;5.57;;;;;;;;;;5094088;28;20399;-56
2021/04/16 07:54:10;;;;;;;6.43;4.93;;;;;;;;;;5094080;28;20496;-53
2021/04/16 07:56:36;;;;;;;4.47;4.07;;;;;;;;;;5093755;28;20403;-53
2021/04/16 07:59:09;;;;;;;5.40;4.90;;;;;;;;;;5093817;28;20488;-54
2021/04/16 08:01:38;;;;;;;4.60;4.20;;;;;;;;;;5093836;28;20395;-56
2021/04/16 08:04:04;;;;;;;5.80;4.83;;;;;;;;;;5094030;28;20399;-56
2021/04/16 08:06:49;;;;;;;7.30;4.27;;;;;;;;;;5093825;28;20419;-57
2021/04/16 08:09:27;;;;;;;4.90;4.50;;;;;;;;;;5094022;28;20397;-53
2021/04/16 08:12:10;;;;;;;5.93;4.97;;;;;;;;;;5093691;28;20951;-53
2021/04/16 08:14:38;;;;;;;5.57;4.33;;;;;;;;;;5093832;28;21219;-53
2021/04/16 08:17:13;;;;;;;6.20;4.33;;;;;;;;;;5093400;28;20410;-55
2021/04/16 08:19:39;;;;;;;4.23;3.83;;;;;;;;;;5093757;28;20971;-53
2021/04/16 08:22:12;;;;;;;4.60;4.10;;;;;;;;;;5093608;28;20487;-53
2021/04/16 08:24:56;;;;;;;4.80;3.90;;;;;;;;;;5093787;28;20399;-57
2021/04/16 08:27:38;;;;;;;4.20;3.90;;;;;;;;;;5093551;28;20742;-55
2021/04/16 08:30:20;;;;;;;4.67;3.80;;;;;;;;;;5093665;28;20437;-53
2021/04/16 08:32:57;;;;;;;3.50;3.30;;;;;;;;;;5093461;28;20386;-56
2021/04/16 08:35:25;;;;;;;3.90;3.60;;;;;;;;;;5093167;28;20415;-54
2021/04/16 08:37:54;;;;;;;3.40;3.07;;;;;;;;;;5092922;28;20395;-53
2021/04/16 08:40:26;;;;;;;4.57;3.10;;;;;;;;;;5095385;28;20441;-53
2021/04/16 08:42:52;;;;;;;4.30;3.73;;;;;;;;;;5093444;28;20403;-53
2021/04/16 08:45:22;;;;;;;6.70;3.33;;;;;;;;;;5097321;28;20465;-53
2021/04/16 08:47:57;;;;;;;3.73;3.37;;;;;;;;;;5092824;28;20447;-53
2021/04/16 08:50:25;;;;;;;7.03;3.77;;;;;;;;;;5091328;28;20468;-55
2021/04/16 08:52:53;;;;;;;3.50;3.23;;;;;;;;;;5074889;28;20746;-53
2021/04/16 08:55:21;;;;;;;3.30;3.10;;;;;;;;;;5102556;28;20779;-55
2021/04/16 08:57:52;;;;;;;3.50;3.20;;;;;;;;;;5092560;28;20381;-56
2021/04/16 09:00:18;;;;;;;3.60;3.30;;;;;;;;;;5090910;28;20530;-54
2021/04/16 09:02:44;;;;;;;7.63;3.70;;;;;;;;;;5091098;28;20431;-54
2021/04/16 09:05:14;;;;;;;3.50;3.20;;;;;;;;;;5091441;28;20449;-53
2021/04/16 09:07:44;;;;;;;3.47;3.17;;;;;;;;;;5090747;28;20390;-56
2021/04/16 09:10:16;;;;;;;4.83;3.77;;;;;;;;;;5091051;28;20390;-55
2021/04/16 09:12:44;;;;;;;3.50;3.20;;;;;;;;;;5102424;28;20524;-54
2021/04/16 09:15:19;;;;;;;3.47;3.20;;;;;;;;;;5082334;28;20487;-53
2021/04/16 09:18:08;;;;;;;6.63;3.13;;;;;;;;;;5084228;28;20449;-54
2021/04/16 09:20:34;;;;;;;7.13;3.07;;;;;;;;;;5078132;28;20814;-53
2021/04/16 09:23:02;;;;;;;3.67;2.97;;;;;;;;;;5097151;28;20419;-54
2021/04/16 09:25:43;;;;;;;3.00;2.80;;;;;;;;;;5097677;28;20762;-56
2021/04/16 09:28:21;;;;;;;3.03;2.80;;;;;;;;;;5083974;28;20494;-56
2021/04/16 09:30:48;;;;;;;3.73;3.40;;;;;;;;;;5082360;28;20483;-56
2021/04/16 09:33:18;;;;;;;4.87;3.10;;;;;;;;;;5082326;28;20495;-58
2021/04/16 09:35:47;;;;;;;2.80;2.60;;;;;;;;;;5082246;28;20404;-56
2021/04/16 09:38:31;;;;;;;2.37;2.20;;;;;;;;;;5082490;28;20438;-56
2021/04/16 09:41:16;;;;;;;3.53;3.10;;;;;;;;;;5086301;28;20422;-58
2021/04/16 09:43:43;;;;;;;6.40;2.93;;;;;;;;;;5091922;28;20941;-56
2021/04/16 09:46:28;;;;;;;2.90;2.47;;;;;;;;;;5080024;28;20411;-56
2021/04/16 09:48:55;;;;;;;4.10;2.63;;;;;;;;;;5084765;28;20437;-56
2021/04/16 09:51:33;;;;;;;2.70;2.50;;;;;;;;;;5091452;28;20408;-56
2021/04/16 09:54:08;;;;;;;2.27;2.10;;;;;;;;;;5092997;28;20523;-54
2021/04/16 09:56:35;;;;;;;2.20;2.00;;;;;;;;;;5075067;28;20460;-57
2021/04/16 09:59:03;;;;;;;2.30;2.20;;;;;;;;;;5090483;28;20512;-56
2021/04/16 10:01:29;;;;;;;2.23;2.03;;;;;;;;;;5092369;28;20414;-56
2021/04/16 10:04:00;;;;;;;2.63;2.40;;;;;;;;;;5091157;28;20431;-56
2021/04/16 10:06:35;;;;;;;2.30;2.10;;;;;;;;;;5090617;28;20518;-57
2021/04/16 10:09:20;;;;;;;2.40;2.20;;;;;;;;;;5091180;28;20872;-55
2021/04/16 10:11:47;;;;;;;2.53;2.33;;;;;;;;;;5090185;28;20391;-56
2021/04/16 10:14:21;;;;;;;2.77;2.50;;;;;;;;;;5091141;28;20443;-55
2021/04/16 10:16:51;;;;;;;2.90;2.17;;;;;;;;;;5090771;28;20822;-56
2021/04/16 10:19:21;;;;;;;2.37;2.17;;;;;;;;;;5091124;28;20387;-55
2021/04/16 10:21:47;;;;;;;3.10;2.00;;;;;;;;;;5091118;28;20487;-55
2021/04/16 10:25:05;;;;;;;2.23;2.00;;;;;;;;;;5091219;28;20395;-55
2021/04/16 10:52:36;;;;;;;1.87;1.77;;;;;;;;;;5091207;28;20369;-56
2021/04/16 10:58:20;;;;;;;3.03;2.10;;;;;;;;;;5090325;28;20746;-55
2021/04/16 11:32:43;;;;;;;2.90;2.57;;;;;;;;;;5086811;28;20408;-56
2021/04/16 12:40:11;;;;;;;4.53;3.30;;;;;;;;;;5093134;28;20944;-55
2021/04/16 12:42:37;;;;;;;3.80;3.50;;;;;;;;;;5093255;28;20479;-56
2021/04/16 12:45:03;;;;;;;3.40;3.20;;;;;;;;;;5092950;28;20573;-56
2021/04/16 12:47:32;;;;;;;6.60;3.50;;;;;;;;;;5092855;28;20403;-55
2021/04/16 12:49:59;;;;;;;3.37;3.17;;;;;;;;;;5093043;28;20422;-55
2021/04/16 12:52:25;;;;;;;4.00;3.70;;;;;;;;;;5092894;28;20506;-55
2021/04/16 12:54:52;;;;;;;3.53;3.23;;;;;;;;;;5092915;28;20455;-55
2021/04/16 12:57:20;;;;;;;3.73;2.97;;;;;;;;;;5092565;28;20395;-60
2021/04/16 12:59:46;;;;;;;3.93;3.63;;;;;;;;;;5092660;28;20447;-57
2021/04/16 13:02:26;;;;;;;4.60;3.33;;;;;;;;;;5092741;28;20404;-55
2021/04/16 13:04:53;;;;;;;4.23;3.03;;;;;;;;;;5072054;28;20403;-56
2021/04/16 13:07:22;;;;;;;3.00;2.80;;;;;;;;;;5072339;28;20400;-55
2021/04/16 13:09:47;;;;;;;3.60;3.30;;;;;;;;;;5072402;28;20469;-56
2021/04/16 13:12:14;;;;;;;3.43;3.13;;;;;;;;;;5072405;28;20462;-56
2021/04/16 13:14:40;;;;;;;3.20;2.90;;;;;;;;;;5072441;28;21038;-55
2021/04/16 13:17:05;;;;;;;3.57;3.20;;;;;;;;;;5072199;28;20509;-56
2021/04/16 13:19:36;;;;;;;3.20;2.80;;;;;;;;;;5072377;28;20382;-55
2021/04/16 13:22:09;;;;;;;3.80;2.77;;;;;;;;;;5072307;28;20368;-57
2021/04/16 13:24:35;;;;;;;3.63;2.90;;;;;;;;;;5072041;28;21062;-56
2021/04/16 13:27:03;;;;;;;3.40;3.20;;;;;;;;;;5072008;28;20407;-56
2021/04/16 13:29:29;;;;;;;3.77;3.33;;;;;;;;;;5072012;28;20477;-56
2021/04/16 13:31:55;;;;;;;3.33;3.13;;;;;;;;;;5072189;28;20494;-55
2021/04/16 13:34:22;;;;;;;3.50;2.93;;;;;;;;;;5071963;28;20468;-55
2021/04/16 13:36:48;;;;;;;3.30;3.10;;;;;;;;;;5071676;28;20397;-56
2021/04/16 13:39:14;;;;;;;3.43;3.20;;;;;;;;;;5072066;28;20412;-56
2021/04/16 13:41:40;;;;;;;2.70;2.50;;;;;;;;;;5072015;28;20906;-56
2021/04/16 13:44:06;;;;;;;3.17;2.90;;;;;;;;;;5071570;28;20416;-55
2021/04/16 13:46:33;;;;;;;3.37;3.07;;;;;;;;;;5071551;28;20412;-54
2021/04/16 13:49:00;;;;;;;4.50;3.20;;;;;;;;;;5071781;28;20428;-56
2021/04/16 13:51:26;;;;;;;5.10;3.63;;;;;;;;;;5071363;28;20520;-55
2021/04/16 13:53:52;;;;;;;3.40;3.20;;;;;;;;;;5071550;28;20566;-55
2021/04/16 13:56:19;;;;;;;7.10;3.87;;;;;;;;;;5071414;28;20389;-54
2021/04/16 13:58:45;;;;;;;3.73;3.43;;;;;;;;;;5071315;28;20415;-56
2021/04/16 14:01:11;;;;;;;3.70;3.30;;;;;;;;;;5071389;28;20466;-57
2021/04/16 14:03:37;;;;;;;2.87;2.67;;;;;;;;;;5071506;28;20421;-55
2021/04/16 14:06:11;;;;;;;3.17;2.87;;;;;;;;;;5071028;28;20902;-55
2021/04/16 14:08:38;;;;;;;3.00;2.80;;;;;;;;;;5071234;28;20474;-56
2021/04/16 14:11:05;;;;;;;3.60;2.87;;;;;;;;;;5071099;28;20405;-54
2021/04/16 14:13:31;;;;;;;2.47;2.37;;;;;;;;;;5071159;28;20411;-55
2021/04/16 14:16:01;;;;;;;3.60;2.90;;;;;;;;;;5070849;28;20380;-55
2021/04/16 14:18:32;;;;;;;3.33;3.03;;;;;;;;;;5071194;28;20408;-55
2021/04/16 14:20:58;;;;;;;2.80;2.60;;;;;;;;;;5071093;28;20961;-54
2021/04/16 14:23:24;;;;;;;3.10;2.80;;;;;;;;;;5071111;28;20410;-55
2021/04/16 14:25:50;;;;;;;3.10;2.90;;;;;;;;;;5070857;28;20777;-54
2021/04/16 14:28:17;;;;;;;3.20;3.00;;;;;;;;;;5083367;28;20855;-54
2021/04/16 14:30:44;;;;;;;3.20;2.90;;;;;;;;;;5100920;28;20422;-55
2021/04/16 14:33:12;;;;;;;4.83;3.20;;;;;;;;;;5091241;28;20460;-53
2021/04/16 14:35:38;;;;;;;3.23;2.90;;;;;;;;;;5092059;28;20892;-55
2021/04/16 14:38:04;;;;;;;3.90;3.37;;;;;;;;;;5093659;28;20386;-55
2021/04/16 14:40:31;;;;;;;3.00;2.80;;;;;;;;;;5089760;28;20419;-55
2021/04/16 14:42:57;;;;;;;5.97;4.10;;;;;;;;;;5089705;28;20470;-54
2021/04/16 14:45:24;;;;;;;3.30;3.00;;;;;;;;;;5089811;28;20858;-55
2021/04/16 14:47:50;;;;;;;3.17;2.97;;;;;;;;;;5090870;28;20435;-54
2021/04/16 14:50:17;;;;;;;8.50;2.63;;;;;;;;;;5090618;28;20418;-55
2021/04/16 14:52:43;;;;;;;3.10;2.80;;;;;;;;;;5090596;28;20962;-55
2021/04/16 14:55:13;;;;;;;8.63;3.43;;;;;;;;;;5089769;28;20451;-55
2021/04/16 14:57:39;;;;;;;2.93;2.73;;;;;;;;;;5091000;28;20410;-55
2021/04/16 15:00:09;;;;;;;2.83;2.63;;;;;;;;;;5090737;28;20439;-55
2021/04/16 15:02:34;;;;;;;3.10;2.70;;;;;;;;;;5090932;28;20818;-55
2021/04/16 15:05:00;;;;;;;3.90;2.70;;;;;;;;;;5090608;28;20524;-54
2021/04/16 15:07:29;;;;;;;2.60;2.40;;;;;;;;;;5090960;28;20374;-55
2021/04/16 15:09:58;;;;;;;3.77;3.10;;;;;;;;;;5090657;28;20451;-55
2021/04/16 15:12:26;;;;;;;2.50;2.30;;;;;;;;;;5090951;28;20434;-55
2021/04/16 15:14:53;;;;;;;5.60;2.90;;;;;;;;;;5090465;28;20418;-55
2021/04/16 15:17:20;;;;;;;3.43;3.13;;;;;;;;;;5090437;28;20400;-56
2021/04/16 15:19:47;;;;;;;4.40;3.40;;;;;;;;;;5090677;28;20390;-55
2021/04/16 15:22:16;;;;;;;3.20;3.00;;;;;;;;;;5090569;28;20486;-56
2021/04/16 15:24:43;;;;;;;4.30;3.10;;;;;;;;;;5090608;28;20396;-54
2021/04/16 15:27:12;;;;;;;3.77;3.20;;;;;;;;;;5090170;28;20414;-56
2021/04/16 15:29:39;;;;;;;2.90;2.70;;;;;;;;;;5090402;28;20423;-55
2021/04/16 15:32:07;;;;;;;3.13;2.90;;;;;;;;;;5090477;28;20414;-55
2021/04/16 15:48:03;;;;;;;3.13;2.83;;;;;;;;;;5090500;28;20423;-54
2021/04/16 15:50:32;;;;;;;3.77;3.47;;;;;;;;;;5090361;28;20393;-55
2021/04/16 15:52:58;;;;;;;3.50;3.27;;;;;;;;;;5090482;28;20374;-55
2021/04/16 15:55:24;;;;;;;2.73;2.53;;;;;;;;;;5090295;28;20941;-55
2021/04/16 15:57:50;;;;;;;2.87;2.67;;;;;;;;;;5090329;28;20366;-56
2021/04/16 16:00:39;;;;;;;3.17;2.97;;;;;;;;;;5090361;28;20868;-55
2021/04/16 16:03:05;;;;;;;3.23;2.93;;;;;;;;;;5090608;28;20439;-56
2021/04/16 16:05:31;;;;;;;3.17;2.87;;;;;;;;;;5090349;28;20407;-55
2021/04/16 16:07:59;;;;;;;3.30;3.10;;;;;;;;;;5093995;28;20495;-54
2021/04/16 16:10:25;;;;;;;6.17;3.70;;;;;;;;;;5094154;28;20394;-54
2021/04/16 16:12:53;;;;;;;3.00;2.90;;;;;;;;;;5094111;28;20486;-55
2021/04/16 16:15:28;;;;;;;3.63;3.30;;;;;;;;;;5093515;28;20453;-54
2021/04/16 16:17:55;;;;;;;2.90;2.70;;;;;;;;;;5093974;28;20402;-56
2021/04/16 16:20:24;;;;;;;3.20;3.00;;;;;;;;;;5093575;28;20470;-55
2021/04/16 16:22:50;;;;;;;3.10;2.90;;;;;;;;;;5093692;28;20392;-55
2021/04/16 16:25:16;;;;;;;3.60;2.90;;;;;;;;;;5093196;28;20399;-54
2021/04/16 16:27:44;;;;;;;2.87;2.70;;;;;;;;;;5093600;28;20400;-55
2021/04/16 16:30:11;;;;;;;3.90;3.60;;;;;;;;;;5093691;28;20463;-54
2021/04/16 16:32:39;;;;;;;3.63;3.33;;;;;;;;;;5093655;28;20491;-54
2021/04/16 16:35:06;;;;;;;3.93;3.63;;;;;;;;;;5093138;28;20886;-55
2021/04/16 16:37:32;;;;;;;3.13;2.93;;;;;;;;;;5093556;28;20745;-55
2021/04/16 16:39:58;;;;;;;3.67;3.43;;;;;;;;;;5093284;28;20444;-54
2021/04/16 16:42:34;;;;;;;3.40;3.20;;;;;;;;;;5093368;28;20883;-55
2021/04/16 16:45:00;;;;;;;5.03;3.00;;;;;;;;;;5093114;28;20399;-54
2021/04/16 16:47:26;;;;;;;3.40;3.20;;;;;;;;;;5093161;28;20452;-54
2021/04/16 16:49:52;;;;;;;10.23;2.93;;;;;;;;;;5093156;28;20463;-55
2021/04/16 16:52:19;;;;;;;3.90;2.97;;;;;;;;;;5093007;28;20418;-54
2021/04/16 16:54:45;;;;;;;3.20;2.90;;;;;;;;;;5092985;28;20439;-55
2021/04/16 16:57:13;;;;;;;4.43;4.03;;;;;;;;;;5092663;28;20404;-54
2021/04/16 16:59:40;;;;;;;4.80;4.40;;;;;;;;;;5092887;28;20434;-55
2021/04/16 17:02:10;;;;;;;5.50;4.50;;;;;;;;;;5092873;28;20379;-54
2021/04/16 17:04:36;;;;;;;5.60;4.40;;;;;;;;;;5093023;28;20477;-54
2021/04/16 17:07:02;;;;;;;5.17;4.13;;;;;;;;;;5092523;28;20944;-55